»·PEaware :: N6065L KSMX-KBFL

N6065L :: KSMX-KBFL

FLIGHT INFORMATION

Flight Status: Arrived
Operator: Privately registered:
United States
More flights under this callsign
Pilot: Kyle A. (14988)
Aircraft: CESSNA 172 SKYHAWK
(C172)
More flights by this aircraft type
Origin: KSMX Santa Maria Pub/Capt Hancock
United States
Destination: KBFL Meadows
United States
More flights between these airports :: More routes between these airports
Route: +
File this flight plan on PilotEdge
Remarks: CAT4
Altitude:
(Current/Filed)
7,500ft
Speed:
(Current/Filed)
0kts
Departed: 17-Nov-17 11:56 AM
Arrived: 17-Nov-17 12:32 PM
Distance/Time
Traveled:
76nm/0:36
Distance/Time
To Go:
Arrived

Flight Plot

Page will automatically refresh every two minutes.


Map Options




Map Legend


Flown Route
Filed Route
Departure Airport
Arrival Airport
Navaid (VOR, NDB)
Fix

Horizontal Profiles

Position Reports

Time Latitude Longitude Heading Altitude Ground
Speed
17-Nov-17 12:00 34.956744 -120.349672 59 5435ft 104kts
17-Nov-17 12:01 34.967207 -120.321991 57 6284ft 104kts
17-Nov-17 12:02 34.979102 -120.290398 57 7261ft 101kts
17-Nov-17 12:03 34.993534 -120.252445 59 7483ft 142kts
17-Nov-17 12:04 35.009773 -120.209197 59 7479ft 140kts
17-Nov-17 12:05 35.025975 -120.165994 59 7479ft 140kts
17-Nov-17 12:06 35.042133 -120.122855 59 7480ft 140kts
17-Nov-17 12:07 35.057213 -120.082539 59 7480ft 140kts
17-Nov-17 12:08 35.073466 -120.039025 59 7480ft 141kts
17-Nov-17 12:09 35.089719 -119.995444 59 7480ft 141kts
17-Nov-17 12:10 35.103262 -119.959080 59 7481ft 141kts
17-Nov-17 12:11 35.116296 -119.924045 59 7482ft 141kts
17-Nov-17 12:12 35.132549 -119.880304 59 7482ft 141kts
17-Nov-17 12:13 35.148812 -119.836478 59 7482ft 141kts
17-Nov-17 12:14 35.165062 -119.792623 59 7482ft 141kts
17-Nov-17 12:15 35.181294 -119.748733 59 7482ft 141kts
17-Nov-17 12:16 35.197406 -119.704975 58 7483ft 141kts
17-Nov-17 12:17 35.213154 -119.662119 57 7485ft 140kts
17-Nov-17 12:18 35.228739 -119.619614 56 7485ft 136kts
17-Nov-17 12:19 35.244007 -119.577990 55 7485ft 133kts
17-Nov-17 12:20 35.259015 -119.537055 54 7485ft 132kts
17-Nov-17 12:21 35.273844 -119.496595 54 7484ft 130kts
17-Nov-17 12:22 35.288626 -119.456306 53 7485ft 129kts
17-Nov-17 12:23 35.303620 -119.415467 54 7227ft 134kts
17-Nov-17 12:24 35.318245 -119.375328 54 6488ft 127kts
17-Nov-17 12:25 35.331773 -119.338161 55 5737ft 124kts
17-Nov-17 12:26 35.345462 -119.300692 55 4959ft 124kts
17-Nov-17 12:27 35.359427 -119.262341 55 4162ft 122kts
17-Nov-17 12:28 35.372718 -119.225942 57 3492ft 112kts
17-Nov-17 12:29 35.384233 -119.194132 57 3163ft 103kts
17-Nov-17 12:30 35.393932 -119.167504 55 2763ft 106kts
17-Nov-17 12:31 35.408118 -119.128578 58 2117ft 111kts
17-Nov-17 12:32 35.418724 -119.099367 58 1554ft 113kts
17-Nov-17 12:33 35.422877 -119.065484 135 1506ft 97kts
17-Nov-17 12:34 35.403613 -119.044606 75 1076ft 82kts
17-Nov-17 12:35 35.415560 -119.038416 325 812ft 62kts
17-Nov-17 12:36 35.425321 -119.049509 323 666ft 47kts
17-Nov-17 12:37 35.432872 -119.058524 319 496ft 16kts
17-Nov-17 12:38 35.435048 -119.059770 44 496ft 0kts
17-Nov-17 12:39 35.436343 -119.057488 85 496ft 17kts
17-Nov-17 12:40 35.433779 -119.053899 136 496ft 18kts
17-Nov-17 12:41 35.430550 -119.049980 138 496ft 20kts
17-Nov-17 12:42 35.427904 -119.045968 36 496ft 12kts
17-Nov-17 12:43 35.429006 -119.045972 235 496ft 0kts
17-Nov-17 12:44 35.429006 -119.045972 235 496ft 0kts
17-Nov-17 12:45 35.429006 -119.045972 235 496ft 0kts
17-Nov-17 12:46 35.429006 -119.045972 235 496ft 0kts
17-Nov-17 12:47 35.429006 -119.045972 235 496ft 0kts
17-Nov-17 12:48 35.429006 -119.045972 235 496ft 0kts
17-Nov-17 12:49 35.429006 -119.045972 235 496ft 0kts
17-Nov-17 12:50 35.429006 -119.045972 235 496ft 0kts
17-Nov-17 12:51 35.429006 -119.045972 235 496ft 0kts

Navigation Log

Ident Type
1. KSMX Airport
2. KBFL Airport